sensor_id;sensor_type;location;lat;lon;timestamp;P1;durP1;ratioP1;P2;durP2;ratioP2
78989;SDS011;68390;52.130;21.218;2023-08-30T00:00:40;33.22;;;20.90;;
78989;SDS011;68390;52.130;21.218;2023-08-30T00:03:06;32.67;;;22.10;;
78989;SDS011;68390;52.130;21.218;2023-08-30T00:05:32;34.17;;;22.70;;
78989;SDS011;68390;52.130;21.218;2023-08-30T00:07:58;37.70;;;24.85;;
78989;SDS011;68390;52.130;21.218;2023-08-30T00:10:23;46.95;;;26.20;;
78989;SDS011;68390;52.130;21.218;2023-08-30T00:12:48;32.88;;;21.95;;
78989;SDS011;68390;52.130;21.218;2023-08-30T00:15:14;45.63;;;27.10;;
78989;SDS011;68390;52.130;21.218;2023-08-30T00:17:39;55.90;;;28.98;;
78989;SDS011;68390;52.130;21.218;2023-08-30T00:20:05;39.30;;;25.98;;
78989;SDS011;68390;52.130;21.218;2023-08-30T00:22:32;45.10;;;26.98;;
78989;SDS011;68390;52.130;21.218;2023-08-30T00:24:57;45.40;;;26.85;;
78989;SDS011;68390;52.130;21.218;2023-08-30T00:27:23;40.65;;;26.23;;
78989;SDS011;68390;52.130;21.218;2023-08-30T00:29:48;47.05;;;28.02;;
78989;SDS011;68390;52.130;21.218;2023-08-30T00:32:14;50.33;;;27.92;;
78989;SDS011;68390;52.130;21.218;2023-08-30T00:34:40;41.13;;;26.50;;
78989;SDS011;68390;52.130;21.218;2023-08-30T00:37:05;39.83;;;25.92;;
78989;SDS011;68390;52.130;21.218;2023-08-30T00:39:30;47.03;;;27.10;;
78989;SDS011;68390;52.130;21.218;2023-08-30T00:41:56;42.90;;;23.00;;
78989;SDS011;68390;52.130;21.218;2023-08-30T00:44:22;40.92;;;24.20;;
78989;SDS011;68390;52.130;21.218;2023-08-30T00:46:47;34.47;;;22.45;;
78989;SDS011;68390;52.130;21.218;2023-08-30T00:49:13;39.78;;;24.75;;
78989;SDS011;68390;52.130;21.218;2023-08-30T00:51:39;42.67;;;23.60;;
78989;SDS011;68390;52.130;21.218;2023-08-30T00:54:04;28.75;;;19.45;;
78989;SDS011;68390;52.130;21.218;2023-08-30T00:56:32;46.53;;;26.92;;
78989;SDS011;68390;52.130;21.218;2023-08-30T00:58:58;40.17;;;23.65;;
78989;SDS011;68390;52.130;21.218;2023-08-30T01:01:24;37.08;;;23.50;;
78989;SDS011;68390;52.130;21.218;2023-08-30T01:03:51;44.45;;;26.98;;
78989;SDS011;68390;52.130;21.218;2023-08-30T01:06:16;42.22;;;25.23;;
78989;SDS011;68390;52.130;21.218;2023-08-30T01:08:42;36.05;;;21.73;;
78989;SDS011;68390;52.130;21.218;2023-08-30T01:14:07;45.67;;;25.73;;
78989;SDS011;68390;52.130;21.218;2023-08-30T01:16:35;48.00;;;27.90;;
78989;SDS011;68390;52.130;21.218;2023-08-30T01:19:11;52.63;;;28.50;;
78989;SDS011;68390;52.130;21.218;2023-08-30T01:27:31;47.70;;;27.20;;
78989;SDS011;68390;52.130;21.218;2023-08-30T01:30:00;46.25;;;26.65;;
78989;SDS011;68390;52.130;21.218;2023-08-30T01:32:28;48.10;;;27.13;;
78989;SDS011;68390;52.130;21.218;2023-08-30T01:34:55;36.45;;;21.73;;
78989;SDS011;68390;52.130;21.218;2023-08-30T01:37:22;35.13;;;22.10;;
78989;SDS011;68390;52.130;21.218;2023-08-30T01:39:48;48.13;;;27.50;;
78989;SDS011;68390;52.130;21.218;2023-08-30T01:42:15;50.22;;;27.70;;
78989;SDS011;68390;52.130;21.218;2023-08-30T01:44:40;45.95;;;25.33;;
78989;SDS011;68390;52.130;21.218;2023-08-30T01:47:09;32.78;;;20.30;;
78989;SDS011;68390;52.130;21.218;2023-08-30T01:49:36;40.72;;;24.55;;
78989;SDS011;68390;52.130;21.218;2023-08-30T01:52:04;58.20;;;28.65;;
78989;SDS011;68390;52.130;21.218;2023-08-30T01:54:31;49.42;;;26.85;;
78989;SDS011;68390;52.130;21.218;2023-08-30T01:56:58;50.50;;;28.58;;
78989;SDS011;68390;52.130;21.218;2023-08-30T01:59:24;62.70;;;29.80;;
78989;SDS011;68390;52.130;21.218;2023-08-30T02:01:50;40.85;;;24.45;;
78989;SDS011;68390;52.130;21.218;2023-08-30T02:04:16;46.55;;;25.13;;
78989;SDS011;68390;52.130;21.218;2023-08-30T02:06:54;60.20;;;30.92;;
78989;SDS011;68390;52.130;21.218;2023-08-30T02:09:29;54.95;;;27.58;;
78989;SDS011;68390;52.130;21.218;2023-08-30T02:12:00;54.10;;;29.83;;
78989;SDS011;68390;52.130;21.218;2023-08-30T02:14:29;51.75;;;28.45;;
78989;SDS011;68390;52.130;21.218;2023-08-30T02:16:57;54.33;;;28.83;;
78989;SDS011;68390;52.130;21.218;2023-08-30T02:19:23;45.40;;;27.10;;
78989;SDS011;68390;52.130;21.218;2023-08-30T02:21:49;48.45;;;27.05;;
78989;SDS011;68390;52.130;21.218;2023-08-30T02:24:14;33.65;;;22.05;;
78989;SDS011;68390;52.130;21.218;2023-08-30T02:26:40;42.45;;;24.75;;
78989;SDS011;68390;52.130;21.218;2023-08-30T02:29:05;44.78;;;27.00;;
78989;SDS011;68390;52.130;21.218;2023-08-30T02:31:31;50.35;;;27.52;;
78989;SDS011;68390;52.130;21.218;2023-08-30T02:33:56;46.78;;;27.67;;
78989;SDS011;68390;52.130;21.218;2023-08-30T02:36:22;46.97;;;26.88;;
78989;SDS011;68390;52.130;21.218;2023-08-30T02:38:47;37.53;;;21.45;;
78989;SDS011;68390;52.130;21.218;2023-08-30T02:41:12;47.15;;;25.50;;
78989;SDS011;68390;52.130;21.218;2023-08-30T02:43:38;50.47;;;28.95;;
78989;SDS011;68390;52.130;21.218;2023-08-30T02:46:03;59.53;;;29.88;;
78989;SDS011;68390;52.130;21.218;2023-08-30T02:48:30;52.60;;;28.75;;
78989;SDS011;68390;52.130;21.218;2023-08-30T02:50:56;52.55;;;28.63;;
78989;SDS011;68390;52.130;21.218;2023-08-30T02:53:24;57.45;;;28.55;;
78989;SDS011;68390;52.130;21.218;2023-08-30T02:55:50;65.70;;;30.80;;
78989;SDS011;68390;52.130;21.218;2023-08-30T02:58:15;63.15;;;31.48;;
78989;SDS011;68390;52.130;21.218;2023-08-30T03:00:41;65.22;;;30.75;;
78989;SDS011;68390;52.130;21.218;2023-08-30T03:03:06;47.53;;;25.13;;
78989;SDS011;68390;52.130;21.218;2023-08-30T03:05:32;63.03;;;30.20;;
78989;SDS011;68390;52.130;21.218;2023-08-30T03:07:57;56.67;;;30.65;;
78989;SDS011;68390;52.130;21.218;2023-08-30T03:10:22;53.58;;;29.00;;
78989;SDS011;68390;52.130;21.218;2023-08-30T03:12:48;41.33;;;22.75;;
78989;SDS011;68390;52.130;21.218;2023-08-30T03:15:14;49.55;;;26.98;;
78989;SDS011;68390;52.130;21.218;2023-08-30T03:17:39;35.85;;;20.92;;
78989;SDS011;68390;52.130;21.218;2023-08-30T03:20:05;54.30;;;28.88;;
78989;SDS011;68390;52.130;21.218;2023-08-30T03:22:31;56.03;;;26.45;;
78989;SDS011;68390;52.130;21.218;2023-08-30T03:24:57;61.80;;;29.42;;
78989;SDS011;68390;52.130;21.218;2023-08-30T03:27:23;40.47;;;22.48;;
78989;SDS011;68390;52.130;21.218;2023-08-30T03:29:49;53.90;;;24.98;;
78989;SDS011;68390;52.130;21.218;2023-08-30T03:32:15;56.97;;;27.98;;
78989;SDS011;68390;52.130;21.218;2023-08-30T03:34:43;39.40;;;21.58;;
78989;SDS011;68390;52.130;21.218;2023-08-30T03:37:09;56.65;;;27.27;;
78989;SDS011;68390;52.130;21.218;2023-08-30T03:39:35;57.92;;;27.90;;
78989;SDS011;68390;52.130;21.218;2023-08-30T03:42:00;77.88;;;30.00;;
78989;SDS011;68390;52.130;21.218;2023-08-30T03:44:26;57.28;;;29.13;;
78989;SDS011;68390;52.130;21.218;2023-08-30T03:46:51;53.25;;;27.77;;
78989;SDS011;68390;52.130;21.218;2023-08-30T03:49:16;46.53;;;24.05;;
78989;SDS011;68390;52.130;21.218;2023-08-30T03:51:42;66.72;;;29.58;;
78989;SDS011;68390;52.130;21.218;2023-08-30T03:54:07;53.38;;;25.73;;
78989;SDS011;68390;52.130;21.218;2023-08-30T03:56:38;58.97;;;27.42;;
78989;SDS011;68390;52.130;21.218;2023-08-30T03:59:03;65.55;;;26.48;;
78989;SDS011;68390;52.130;21.218;2023-08-30T04:01:29;77.40;;;26.65;;
78989;SDS011;68390;52.130;21.218;2023-08-30T04:03:54;61.25;;;27.08;;
78989;SDS011;68390;52.130;21.218;2023-08-30T04:06:20;71.35;;;26.73;;
78989;SDS011;68390;52.130;21.218;2023-08-30T04:08:46;55.28;;;28.27;;
78989;SDS011;68390;52.130;21.218;2023-08-30T04:11:12;41.88;;;22.65;;
78989;SDS011;68390;52.130;21.218;2023-08-30T04:13:37;59.50;;;29.98;;
78989;SDS011;68390;52.130;21.218;2023-08-30T04:16:03;62.25;;;27.90;;
78989;SDS011;68390;52.130;21.218;2023-08-30T04:18:29;60.20;;;28.10;;
78989;SDS011;68390;52.130;21.218;2023-08-30T04:20:54;60.42;;;27.05;;
78989;SDS011;68390;52.130;21.218;2023-08-30T04:23:19;65.60;;;28.67;;
78989;SDS011;68390;52.130;21.218;2023-08-30T04:25:45;34.55;;;20.83;;
78989;SDS011;68390;52.130;21.218;2023-08-30T04:28:10;50.15;;;25.70;;
78989;SDS011;68390;52.130;21.218;2023-08-30T04:30:36;61.92;;;28.88;;
78989;SDS011;68390;52.130;21.218;2023-08-30T04:33:03;56.30;;;27.27;;
78989;SDS011;68390;52.130;21.218;2023-08-30T04:35:30;81.03;;;29.92;;
78989;SDS011;68390;52.130;21.218;2023-08-30T04:37:55;44.38;;;22.88;;
78989;SDS011;68390;52.130;21.218;2023-08-30T04:40:20;59.65;;;27.70;;
78989;SDS011;68390;52.130;21.218;2023-08-30T04:42:46;49.47;;;25.88;;
78989;SDS011;68390;52.130;21.218;2023-08-30T04:45:11;44.70;;;24.00;;
78989;SDS011;68390;52.130;21.218;2023-08-30T04:47:37;40.28;;;22.60;;
78989;SDS011;68390;52.130;21.218;2023-08-30T04:50:02;52.85;;;26.27;;
78989;SDS011;68390;52.130;21.218;2023-08-30T04:52:28;55.30;;;26.98;;
78989;SDS011;68390;52.130;21.218;2023-08-30T04:54:53;38.53;;;19.77;;
78989;SDS011;68390;52.130;21.218;2023-08-30T04:57:19;52.75;;;27.88;;
78989;SDS011;68390;52.130;21.218;2023-08-30T04:59:46;65.93;;;28.65;;
78989;SDS011;68390;52.130;21.218;2023-08-30T05:02:11;53.78;;;25.50;;
78989;SDS011;68390;52.130;21.218;2023-08-30T05:04:37;49.38;;;26.60;;
78989;SDS011;68390;52.130;21.218;2023-08-30T05:07:03;58.83;;;28.35;;
78989;SDS011;68390;52.130;21.218;2023-08-30T05:09:29;54.10;;;27.65;;
78989;SDS011;68390;52.130;21.218;2023-08-30T05:11:55;51.30;;;24.58;;
78989;SDS011;68390;52.130;21.218;2023-08-30T05:14:21;47.88;;;24.58;;
78989;SDS011;68390;52.130;21.218;2023-08-30T05:16:46;57.25;;;27.13;;
78989;SDS011;68390;52.130;21.218;2023-08-30T05:19:11;53.40;;;27.63;;
78989;SDS011;68390;52.130;21.218;2023-08-30T05:21:37;44.45;;;24.63;;
78989;SDS011;68390;52.130;21.218;2023-08-30T05:24:03;57.22;;;26.40;;
78989;SDS011;68390;52.130;21.218;2023-08-30T05:26:30;49.67;;;25.70;;
78989;SDS011;68390;52.130;21.218;2023-08-30T05:28:56;48.78;;;26.45;;
78989;SDS011;68390;52.130;21.218;2023-08-30T05:31:21;51.13;;;24.77;;
78989;SDS011;68390;52.130;21.218;2023-08-30T05:33:46;43.40;;;22.85;;
78989;SDS011;68390;52.130;21.218;2023-08-30T05:36:12;47.97;;;26.13;;
78989;SDS011;68390;52.130;21.218;2023-08-30T05:38:37;44.38;;;25.83;;
78989;SDS011;68390;52.130;21.218;2023-08-30T05:41:03;53.25;;;26.60;;
78989;SDS011;68390;52.130;21.218;2023-08-30T05:43:29;46.67;;;24.70;;
78989;SDS011;68390;52.130;21.218;2023-08-30T05:45:54;50.17;;;25.17;;
78989;SDS011;68390;52.130;21.218;2023-08-30T05:48:20;51.20;;;25.52;;
78989;SDS011;68390;52.130;21.218;2023-08-30T05:50:45;50.17;;;24.65;;
78989;SDS011;68390;52.130;21.218;2023-08-30T05:53:11;36.60;;;19.83;;
78989;SDS011;68390;52.130;21.218;2023-08-30T05:55:36;46.38;;;25.15;;
78989;SDS011;68390;52.130;21.218;2023-08-30T05:58:02;46.53;;;24.10;;
78989;SDS011;68390;52.130;21.218;2023-08-30T06:00:28;43.10;;;24.30;;
78989;SDS011;68390;52.130;21.218;2023-08-30T06:02:53;33.50;;;19.80;;
78989;SDS011;68390;52.130;21.218;2023-08-30T06:05:19;45.20;;;24.38;;
78989;SDS011;68390;52.130;21.218;2023-08-30T06:07:44;48.42;;;26.38;;
78989;SDS011;68390;52.130;21.218;2023-08-30T06:10:09;46.35;;;24.38;;
78989;SDS011;68390;52.130;21.218;2023-08-30T06:12:35;50.25;;;25.80;;
78989;SDS011;68390;52.130;21.218;2023-08-30T06:15:00;50.45;;;26.40;;
78989;SDS011;68390;52.130;21.218;2023-08-30T06:17:26;55.42;;;26.67;;
78989;SDS011;68390;52.130;21.218;2023-08-30T06:19:51;58.60;;;25.92;;
78989;SDS011;68390;52.130;21.218;2023-08-30T06:22:17;45.83;;;25.00;;
78989;SDS011;68390;52.130;21.218;2023-08-30T06:24:42;52.88;;;26.00;;
78989;SDS011;68390;52.130;21.218;2023-08-30T06:27:07;53.22;;;26.38;;
78989;SDS011;68390;52.130;21.218;2023-08-30T06:29:33;46.25;;;25.60;;
78989;SDS011;68390;52.130;21.218;2023-08-30T06:31:58;40.05;;;22.95;;
78989;SDS011;68390;52.130;21.218;2023-08-30T06:34:24;51.47;;;26.48;;
78989;SDS011;68390;52.130;21.218;2023-08-30T06:36:49;53.47;;;27.52;;
78989;SDS011;68390;52.130;21.218;2023-08-30T06:39:15;54.13;;;27.75;;
78989;SDS011;68390;52.130;21.218;2023-08-30T06:41:42;43.42;;;23.83;;
78989;SDS011;68390;52.130;21.218;2023-08-30T06:44:07;51.67;;;28.38;;
78989;SDS011;68390;52.130;21.218;2023-08-30T06:46:33;56.75;;;27.10;;
78989;SDS011;68390;52.130;21.218;2023-08-30T06:48:58;36.72;;;20.13;;
78989;SDS011;68390;52.130;21.218;2023-08-30T06:51:24;43.75;;;23.65;;
78989;SDS011;68390;52.130;21.218;2023-08-30T06:53:50;53.13;;;26.60;;
78989;SDS011;68390;52.130;21.218;2023-08-30T06:56:15;53.05;;;26.85;;
78989;SDS011;68390;52.130;21.218;2023-08-30T06:58:41;39.88;;;24.08;;
78989;SDS011;68390;52.130;21.218;2023-08-30T07:01:07;41.05;;;24.17;;
78989;SDS011;68390;52.130;21.218;2023-08-30T07:03:32;49.75;;;26.23;;
78989;SDS011;68390;52.130;21.218;2023-08-30T07:05:57;42.60;;;24.02;;
78989;SDS011;68390;52.130;21.218;2023-08-30T07:08:23;52.10;;;25.92;;
78989;SDS011;68390;52.130;21.218;2023-08-30T07:10:48;61.97;;;28.08;;
78989;SDS011;68390;52.130;21.218;2023-08-30T07:13:14;42.10;;;22.85;;
78989;SDS011;68390;52.130;21.218;2023-08-30T07:15:40;46.38;;;24.30;;
78989;SDS011;68390;52.130;21.218;2023-08-30T07:18:06;48.97;;;24.75;;
78989;SDS011;68390;52.130;21.218;2023-08-30T07:20:33;51.72;;;26.75;;
78989;SDS011;68390;52.130;21.218;2023-08-30T07:22:59;54.30;;;27.17;;
78989;SDS011;68390;52.130;21.218;2023-08-30T07:25:24;45.08;;;25.48;;
78989;SDS011;68390;52.130;21.218;2023-08-30T07:27:50;48.10;;;24.75;;
78989;SDS011;68390;52.130;21.218;2023-08-30T07:30:15;50.92;;;26.25;;
78989;SDS011;68390;52.130;21.218;2023-08-30T07:32:41;52.92;;;26.42;;
78989;SDS011;68390;52.130;21.218;2023-08-30T07:35:07;41.22;;;24.48;;
78989;SDS011;68390;52.130;21.218;2023-08-30T07:37:33;42.10;;;22.88;;
78989;SDS011;68390;52.130;21.218;2023-08-30T07:40:00;55.58;;;27.83;;
78989;SDS011;68390;52.130;21.218;2023-08-30T07:42:25;41.67;;;23.90;;
78989;SDS011;68390;52.130;21.218;2023-08-30T07:44:50;48.13;;;25.95;;
78989;SDS011;68390;52.130;21.218;2023-08-30T07:47:16;40.63;;;23.05;;
78989;SDS011;68390;52.130;21.218;2023-08-30T07:49:41;43.17;;;23.73;;
78989;SDS011;68390;52.130;21.218;2023-08-30T07:52:07;44.17;;;24.77;;
78989;SDS011;68390;52.130;21.218;2023-08-30T07:54:36;43.00;;;25.08;;
78989;SDS011;68390;52.130;21.218;2023-08-30T07:57:02;38.75;;;22.50;;
78989;SDS011;68390;52.130;21.218;2023-08-30T07:59:29;42.13;;;22.35;;
78989;SDS011;68390;52.130;21.218;2023-08-30T08:01:54;42.75;;;22.98;;
78989;SDS011;68390;52.130;21.218;2023-08-30T08:04:20;39.47;;;22.73;;
78989;SDS011;68390;52.130;21.218;2023-08-30T08:06:46;38.00;;;21.90;;
78989;SDS011;68390;52.130;21.218;2023-08-30T08:09:12;39.38;;;21.48;;
78989;SDS011;68390;52.130;21.218;2023-08-30T08:11:37;40.70;;;22.00;;
78989;SDS011;68390;52.130;21.218;2023-08-30T08:14:04;38.60;;;20.20;;
78989;SDS011;68390;52.130;21.218;2023-08-30T08:16:30;37.83;;;19.80;;
78989;SDS011;68390;52.130;21.218;2023-08-30T08:18:56;37.78;;;19.85;;
78989;SDS011;68390;52.130;21.218;2023-08-30T08:21:24;31.92;;;17.00;;
78989;SDS011;68390;52.130;21.218;2023-08-30T08:23:49;28.88;;;17.17;;
78989;SDS011;68390;52.130;21.218;2023-08-30T08:26:15;40.70;;;20.60;;
78989;SDS011;68390;52.130;21.218;2023-08-30T08:28:40;36.88;;;21.05;;
78989;SDS011;68390;52.130;21.218;2023-08-30T08:31:06;38.30;;;21.08;;
78989;SDS011;68390;52.130;21.218;2023-08-30T08:33:32;44.40;;;22.42;;
78989;SDS011;68390;52.130;21.218;2023-08-30T08:35:57;42.38;;;21.23;;
78989;SDS011;68390;52.130;21.218;2023-08-30T08:38:22;42.88;;;22.42;;
78989;SDS011;68390;52.130;21.218;2023-08-30T08:40:48;43.65;;;22.83;;
78989;SDS011;68390;52.130;21.218;2023-08-30T08:43:18;42.20;;;22.33;;
78989;SDS011;68390;52.130;21.218;2023-08-30T08:45:45;43.05;;;21.35;;
78989;SDS011;68390;52.130;21.218;2023-08-30T08:48:10;45.00;;;21.88;;
78989;SDS011;68390;52.130;21.218;2023-08-30T08:50:39;41.55;;;21.67;;
78989;SDS011;68390;52.130;21.218;2023-08-30T08:53:04;40.90;;;20.58;;
78989;SDS011;68390;52.130;21.218;2023-08-30T08:55:32;33.53;;;18.52;;
78989;SDS011;68390;52.130;21.218;2023-08-30T08:57:59;39.95;;;19.35;;
78989;SDS011;68390;52.130;21.218;2023-08-30T09:00:27;37.47;;;20.25;;
78989;SDS011;68390;52.130;21.218;2023-08-30T09:02:55;39.30;;;20.55;;
78989;SDS011;68390;52.130;21.218;2023-08-30T09:05:21;37.05;;;19.50;;
78989;SDS011;68390;52.130;21.218;2023-08-30T09:07:47;48.88;;;21.15;;
78989;SDS011;68390;52.130;21.218;2023-08-30T09:10:13;47.30;;;21.73;;
78989;SDS011;68390;52.130;21.218;2023-08-30T09:12:39;41.88;;;21.40;;
78989;SDS011;68390;52.130;21.218;2023-08-30T09:15:04;43.38;;;21.65;;
78989;SDS011;68390;52.130;21.218;2023-08-30T09:17:36;45.55;;;21.65;;
78989;SDS011;68390;52.130;21.218;2023-08-30T09:20:09;47.40;;;21.70;;
78989;SDS011;68390;52.130;21.218;2023-08-30T09:22:37;43.22;;;20.00;;
78989;SDS011;68390;52.130;21.218;2023-08-30T09:25:03;42.72;;;20.50;;
78989;SDS011;68390;52.130;21.218;2023-08-30T09:27:35;35.50;;;17.88;;
78989;SDS011;68390;52.130;21.218;2023-08-30T09:30:03;39.15;;;18.25;;
78989;SDS011;68390;52.130;21.218;2023-08-30T09:32:30;40.47;;;18.38;;
78989;SDS011;68390;52.130;21.218;2023-08-30T09:34:56;43.65;;;19.05;;
78989;SDS011;68390;52.130;21.218;2023-08-30T09:37:22;31.80;;;15.43;;
78989;SDS011;68390;52.130;21.218;2023-08-30T09:39:48;24.77;;;13.52;;
78989;SDS011;68390;52.130;21.218;2023-08-30T09:42:17;27.48;;;13.93;;
78989;SDS011;68390;52.130;21.218;2023-08-30T09:44:45;20.85;;;11.60;;
78989;SDS011;68390;52.130;21.218;2023-08-30T09:47:12;25.20;;;11.52;;
78989;SDS011;68390;52.130;21.218;2023-08-30T09:49:45;16.33;;;9.32;;
78989;SDS011;68390;52.130;21.218;2023-08-30T09:52:14;12.70;;;8.38;;
78989;SDS011;68390;52.130;21.218;2023-08-30T09:54:43;15.05;;;8.55;;
78989;SDS011;68390;52.130;21.218;2023-08-30T09:57:10;13.27;;;7.97;;
78989;SDS011;68390;52.130;21.218;2023-08-30T09:59:36;17.67;;;8.98;;
78989;SDS011;68390;52.130;21.218;2023-08-30T10:02:03;16.17;;;9.15;;
78989;SDS011;68390;52.130;21.218;2023-08-30T10:04:29;18.83;;;9.20;;
78989;SDS011;68390;52.130;21.218;2023-08-30T10:06:57;18.30;;;10.20;;
78989;SDS011;68390;52.130;21.218;2023-08-30T10:09:24;17.70;;;9.82;;
78989;SDS011;68390;52.130;21.218;2023-08-30T10:11:49;15.52;;;9.30;;
78989;SDS011;68390;52.130;21.218;2023-08-30T10:14:16;17.55;;;9.20;;
78989;SDS011;68390;52.130;21.218;2023-08-30T10:16:42;15.63;;;9.10;;
78989;SDS011;68390;52.130;21.218;2023-08-30T10:19:11;15.65;;;9.15;;
78989;SDS011;68390;52.130;21.218;2023-08-30T10:21:40;9.18;;;6.95;;
78989;SDS011;68390;52.130;21.218;2023-08-30T10:24:08;8.85;;;6.20;;
78989;SDS011;68390;52.130;21.218;2023-08-30T10:26:37;10.25;;;7.05;;
78989;SDS011;68390;52.130;21.218;2023-08-30T10:29:06;9.13;;;6.43;;
78989;SDS011;68390;52.130;21.218;2023-08-30T10:31:34;10.85;;;7.18;;
78989;SDS011;68390;52.130;21.218;2023-08-30T10:34:00;11.70;;;7.07;;
78989;SDS011;68390;52.130;21.218;2023-08-30T10:36:26;10.85;;;6.75;;
78989;SDS011;68390;52.130;21.218;2023-08-30T10:38:55;10.35;;;6.55;;
78989;SDS011;68390;52.130;21.218;2023-08-30T10:43:50;11.43;;;7.05;;
78989;SDS011;68390;52.130;21.218;2023-08-30T10:46:28;11.82;;;7.25;;
78989;SDS011;68390;52.130;21.218;2023-08-30T10:48:54;10.90;;;7.28;;
78989;SDS011;68390;52.130;21.218;2023-08-30T10:51:23;10.85;;;6.85;;
78989;SDS011;68390;52.130;21.218;2023-08-30T10:54:13;8.63;;;6.40;;
78989;SDS011;68390;52.130;21.218;2023-08-30T10:59:24;7.13;;;5.50;;
78989;SDS011;68390;52.130;21.218;2023-08-30T11:01:50;6.85;;;5.45;;
78989;SDS011;68390;52.130;21.218;2023-08-30T11:04:18;7.82;;;5.40;;
78989;SDS011;68390;52.130;21.218;2023-08-30T11:06:44;7.90;;;5.70;;
78989;SDS011;68390;52.130;21.218;2023-08-30T11:09:13;8.73;;;5.60;;
78989;SDS011;68390;52.130;21.218;2023-08-30T11:11:40;6.70;;;4.53;;
78989;SDS011;68390;52.130;21.218;2023-08-30T11:14:06;7.80;;;5.40;;
78989;SDS011;68390;52.130;21.218;2023-08-30T11:16:33;7.35;;;5.50;;
78989;SDS011;68390;52.130;21.218;2023-08-30T11:19:03;7.13;;;4.88;;
78989;SDS011;68390;52.130;21.218;2023-08-30T11:21:30;6.75;;;5.28;;
78989;SDS011;68390;52.130;21.218;2023-08-30T11:23:57;6.60;;;4.95;;
78989;SDS011;68390;52.130;21.218;2023-08-30T11:26:22;7.18;;;4.43;;
78989;SDS011;68390;52.130;21.218;2023-08-30T11:28:48;6.53;;;4.50;;
78989;SDS011;68390;52.130;21.218;2023-08-30T11:33:57;5.43;;;4.53;;
78989;SDS011;68390;52.130;21.218;2023-08-30T11:36:27;7.07;;;4.63;;
78989;SDS011;68390;52.130;21.218;2023-08-30T11:38:53;6.10;;;4.55;;
78989;SDS011;68390;52.130;21.218;2023-08-30T11:41:20;5.40;;;4.35;;
78989;SDS011;68390;52.130;21.218;2023-08-30T11:43:52;7.57;;;5.65;;
78989;SDS011;68390;52.130;21.218;2023-08-30T11:46:19;6.57;;;5.50;;
78989;SDS011;68390;52.130;21.218;2023-08-30T11:48:46;7.28;;;4.90;;
78989;SDS011;68390;52.130;21.218;2023-08-30T11:51:13;8.05;;;5.70;;
78989;SDS011;68390;52.130;21.218;2023-08-30T11:53:39;8.23;;;6.20;;
78989;SDS011;68390;52.130;21.218;2023-08-30T11:56:05;8.23;;;6.30;;
78989;SDS011;68390;52.130;21.218;2023-08-30T11:58:32;7.53;;;5.30;;
78989;SDS011;68390;52.130;21.218;2023-08-30T12:00:58;10.77;;;5.85;;
78989;SDS011;68390;52.130;21.218;2023-08-30T12:03:28;9.25;;;6.38;;
78989;SDS011;68390;52.130;21.218;2023-08-30T12:05:54;8.43;;;5.28;;
78989;SDS011;68390;52.130;21.218;2023-08-30T12:08:24;7.30;;;5.32;;
78989;SDS011;68390;52.130;21.218;2023-08-30T12:10:54;8.00;;;5.32;;
78989;SDS011;68390;52.130;21.218;2023-08-30T12:15:49;7.90;;;5.10;;
78989;SDS011;68390;52.130;21.218;2023-08-30T12:18:25;6.93;;;4.95;;
78989;SDS011;68390;52.130;21.218;2023-08-30T12:23:23;8.98;;;5.63;;
78989;SDS011;68390;52.130;21.218;2023-08-30T12:25:59;8.77;;;5.47;;
78989;SDS011;68390;52.130;21.218;2023-08-30T12:28:26;7.22;;;4.88;;
78989;SDS011;68390;52.130;21.218;2023-08-30T12:30:53;7.68;;;5.10;;
78989;SDS011;68390;52.130;21.218;2023-08-30T12:33:19;7.18;;;4.40;;
78989;SDS011;68390;52.130;21.218;2023-08-30T12:35:45;4.88;;;3.78;;
78989;SDS011;68390;52.130;21.218;2023-08-30T12:38:11;5.18;;;3.53;;
78989;SDS011;68390;52.130;21.218;2023-08-30T12:40:48;6.13;;;3.67;;
78989;SDS011;68390;52.130;21.218;2023-08-30T12:43:18;4.45;;;3.30;;
78989;SDS011;68390;52.130;21.218;2023-08-30T12:45:45;2.85;;;2.13;;
78989;SDS011;68390;52.130;21.218;2023-08-30T12:48:11;3.38;;;2.65;;
78989;SDS011;68390;52.130;21.218;2023-08-30T12:50:40;2.92;;;2.17;;
78989;SDS011;68390;52.130;21.218;2023-08-30T12:53:06;3.50;;;2.75;;
78989;SDS011;68390;52.130;21.218;2023-08-30T12:55:32;3.88;;;2.85;;
78989;SDS011;68390;52.130;21.218;2023-08-30T12:58:01;3.80;;;2.72;;
78989;SDS011;68390;52.130;21.218;2023-08-30T13:00:27;4.15;;;3.00;;
78989;SDS011;68390;52.130;21.218;2023-08-30T13:02:53;4.25;;;2.97;;
78989;SDS011;68390;52.130;21.218;2023-08-30T13:05:18;4.10;;;2.83;;
78989;SDS011;68390;52.130;21.218;2023-08-30T13:07:44;5.40;;;3.13;;
78989;SDS011;68390;52.130;21.218;2023-08-30T13:10:10;4.97;;;3.30;;
78989;SDS011;68390;52.130;21.218;2023-08-30T13:12:35;3.95;;;3.03;;
78989;SDS011;68390;52.130;21.218;2023-08-30T13:15:01;4.78;;;3.45;;
78989;SDS011;68390;52.130;21.218;2023-08-30T13:17:27;6.22;;;3.88;;
78989;SDS011;68390;52.130;21.218;2023-08-30T13:19:52;5.25;;;3.90;;
78989;SDS011;68390;52.130;21.218;2023-08-30T13:22:18;6.47;;;3.95;;
78989;SDS011;68390;52.130;21.218;2023-08-30T13:24:43;6.78;;;4.80;;
78989;SDS011;68390;52.130;21.218;2023-08-30T13:27:09;5.15;;;4.00;;
78989;SDS011;68390;52.130;21.218;2023-08-30T13:29:35;6.65;;;4.88;;
78989;SDS011;68390;52.130;21.218;2023-08-30T13:32:01;8.38;;;5.10;;
78989;SDS011;68390;52.130;21.218;2023-08-30T13:34:27;7.13;;;4.75;;
78989;SDS011;68390;52.130;21.218;2023-08-30T13:36:52;7.07;;;5.28;;
78989;SDS011;68390;52.130;21.218;2023-08-30T13:39:17;7.65;;;5.15;;
78989;SDS011;68390;52.130;21.218;2023-08-30T13:41:46;8.90;;;5.10;;
78989;SDS011;68390;52.130;21.218;2023-08-30T13:44:12;7.50;;;5.05;;
78989;SDS011;68390;52.130;21.218;2023-08-30T13:46:38;7.15;;;5.10;;
78989;SDS011;68390;52.130;21.218;2023-08-30T13:49:03;7.63;;;5.10;;
78989;SDS011;68390;52.130;21.218;2023-08-30T13:51:29;7.32;;;4.65;;
78989;SDS011;68390;52.130;21.218;2023-08-30T13:53:55;6.80;;;4.38;;
78989;SDS011;68390;52.130;21.218;2023-08-30T13:56:20;6.15;;;4.40;;
78989;SDS011;68390;52.130;21.218;2023-08-30T13:58:47;6.07;;;4.28;;
78989;SDS011;68390;52.130;21.218;2023-08-30T14:01:12;6.53;;;4.50;;
78989;SDS011;68390;52.130;21.218;2023-08-30T14:03:38;6.60;;;4.60;;
78989;SDS011;68390;52.130;21.218;2023-08-30T14:06:03;5.70;;;4.30;;
78989;SDS011;68390;52.130;21.218;2023-08-30T14:08:30;6.38;;;4.07;;
78989;SDS011;68390;52.130;21.218;2023-08-30T14:10:56;7.32;;;4.40;;
78989;SDS011;68390;52.130;21.218;2023-08-30T14:13:21;5.57;;;3.90;;
78989;SDS011;68390;52.130;21.218;2023-08-30T14:15:47;7.53;;;4.40;;
78989;SDS011;68390;52.130;21.218;2023-08-30T14:18:13;8.57;;;4.63;;
78989;SDS011;68390;52.130;21.218;2023-08-30T14:20:39;7.70;;;4.10;;
78989;SDS011;68390;52.130;21.218;2023-08-30T14:23:05;6.90;;;4.70;;
78989;SDS011;68390;52.130;21.218;2023-08-30T14:25:31;6.63;;;4.25;;
78989;SDS011;68390;52.130;21.218;2023-08-30T14:27:56;6.15;;;4.40;;
78989;SDS011;68390;52.130;21.218;2023-08-30T14:30:22;6.20;;;4.13;;
78989;SDS011;68390;52.130;21.218;2023-08-30T14:32:47;6.10;;;3.60;;